createdAt,value
2023-03-19T00:00:33.955Z,77098.59
2023-03-19T00:03:00.664Z,77090.50
2023-03-19T00:05:27.280Z,77100.63
2023-03-19T00:07:53.937Z,77100.63
2023-03-19T00:10:20.581Z,77104.66
2023-03-19T00:12:47.418Z,77098.59
2023-03-19T00:15:15.292Z,77104.66
2023-03-19T00:17:43.079Z,77096.56
2023-03-19T00:20:11.857Z,77112.78
2023-03-19T00:22:39.909Z,77120.88
2023-03-19T00:25:08.309Z,77120.88
2023-03-19T00:27:35.315Z,77116.81
2023-03-19T00:30:02.896Z,77120.88
2023-03-19T00:32:30.038Z,77116.81
2023-03-19T00:34:56.678Z,77096.56
2023-03-19T00:37:23.403Z,77120.88
2023-03-19T00:39:50.257Z,77124.91
2023-03-19T00:42:16.751Z,77124.91
2023-03-19T00:44:43.288Z,77141.13
2023-03-19T00:47:09.896Z,77135.03
2023-03-19T00:49:36.853Z,77133.00
2023-03-19T00:52:04.253Z,77128.97
2023-03-19T00:54:32.393Z,77141.13
2023-03-19T00:56:59.350Z,77133.00
2023-03-19T00:59:26.291Z,77151.25
2023-03-19T01:01:52.858Z,77161.38
2023-03-19T01:04:20.359Z,77161.38
2023-03-19T01:06:46.808Z,77161.38
2023-03-19T01:09:13.308Z,77153.25
2023-03-19T01:11:39.835Z,77157.31
2023-03-19T01:14:06.543Z,77157.31
2023-03-19T01:16:34.801Z,77161.38
2023-03-19T01:19:02.245Z,77169.47
2023-03-19T01:21:31.098Z,77173.50
2023-03-19T01:23:58.347Z,77181.59
2023-03-19T01:26:25.065Z,77201.84
2023-03-19T01:28:51.531Z,77189.72
2023-03-19T01:31:18.112Z,77195.78
2023-03-19T01:33:44.645Z,77211.97
2023-03-19T01:36:11.216Z,77218.06
2023-03-19T01:38:38.005Z,77218.06
2023-03-19T01:41:04.884Z,77230.19
2023-03-19T01:43:32.726Z,77224.13
2023-03-19T01:46:02.969Z,77226.16
2023-03-19T01:48:36.773Z,77234.25
2023-03-19T01:51:04.346Z,77236.28
2023-03-19T01:53:33.183Z,77234.25
2023-03-19T01:56:04.256Z,77242.34
2023-03-19T01:58:31.015Z,77244.38
2023-03-19T02:00:58.161Z,77242.34
2023-03-19T02:03:25.331Z,77246.41
2023-03-19T02:05:52.836Z,77240.31
2023-03-19T02:08:22.854Z,77258.56
2023-03-19T02:10:50.460Z,77258.56
2023-03-19T02:13:17.039Z,77260.56
2023-03-19T02:15:43.690Z,77252.47
2023-03-19T02:18:10.635Z,77250.44
2023-03-19T02:20:54.801Z,77244.38
2023-03-19T02:23:32.711Z,77242.34
2023-03-19T02:26:09.125Z,77244.38
2023-03-19T02:28:39.252Z,77254.50
2023-03-19T02:31:07.530Z,77260.56
2023-03-19T02:33:34.485Z,77254.50
2023-03-19T02:36:03.920Z,77264.63
2023-03-19T02:38:33.536Z,77270.69
2023-03-19T02:41:02.936Z,77276.78
2023-03-19T02:43:31.712Z,77278.81
2023-03-19T02:45:58.864Z,77270.69
2023-03-19T02:48:25.542Z,77282.84
2023-03-19T02:50:52.599Z,77270.69
2023-03-19T02:53:19.302Z,77282.84
2023-03-19T02:55:46.142Z,77278.81
2023-03-19T02:58:12.789Z,77276.78
2023-03-19T03:00:39.375Z,77286.91
2023-03-19T03:03:07.596Z,77292.97
2023-03-19T03:05:34.932Z,77295.00
2023-03-19T03:08:01.792Z,77307.16
2023-03-19T03:10:28.589Z,77286.91
2023-03-19T03:12:55.183Z,77307.16
2023-03-19T03:15:21.736Z,77315.25
2023-03-19T03:17:48.466Z,77317.28
2023-03-19T03:20:17.639Z,77307.16
2023-03-19T03:22:44.629Z,77305.13
2023-03-19T03:25:11.314Z,77305.13
2023-03-19T03:27:38.161Z,77311.19
2023-03-19T03:30:08.354Z,77303.09
2023-03-19T03:32:36.880Z,77305.13
2023-03-19T03:35:05.293Z,77315.25
2023-03-19T03:37:31.839Z,77303.09
2023-03-19T03:39:58.342Z,77319.28
2023-03-19T03:42:24.804Z,77313.22
2023-03-19T03:44:51.351Z,77311.19
2023-03-19T03:47:17.990Z,77321.31
2023-03-19T03:49:45.659Z,77315.25
2023-03-19T03:52:12.384Z,77307.16
2023-03-19T03:54:39.116Z,77319.28
2023-03-19T03:57:06.094Z,77313.22
2023-03-19T03:59:32.583Z,77323.34
2023-03-19T04:01:59.147Z,77325.38
2023-03-19T04:04:26.486Z,77307.16
2023-03-19T04:06:52.981Z,77290.94
2023-03-19T04:09:19.559Z,77288.91
2023-03-19T04:11:46.760Z,77299.03
2023-03-19T04:14:13.244Z,77305.13
2023-03-19T04:16:39.994Z,77311.19
2023-03-19T04:19:07.731Z,77307.16
2023-03-19T04:21:35.187Z,77315.25
2023-03-19T04:24:02.816Z,77319.28
2023-03-19T04:26:29.427Z,77307.16
2023-03-19T04:28:56.056Z,77299.03
2023-03-19T04:31:22.828Z,77307.16
2023-03-19T04:33:49.544Z,77299.03
2023-03-19T04:36:17.922Z,77305.13
2023-03-19T04:38:44.548Z,77303.09
2023-03-19T04:41:11.016Z,77305.13
2023-03-19T04:43:37.512Z,77317.28
2023-03-19T04:46:04.420Z,77323.34
2023-03-19T04:48:32.144Z,77323.34
2023-03-19T04:50:58.706Z,77319.28
2023-03-19T04:53:25.528Z,77325.38
2023-03-19T04:55:52.117Z,77331.44
2023-03-19T04:58:18.914Z,77333.47
2023-03-19T05:00:47.478Z,77331.44
2023-03-19T05:03:15.214Z,77329.41
2023-03-19T05:05:42.180Z,77339.53
2023-03-19T05:08:09.470Z,77341.56
2023-03-19T05:10:37.428Z,77347.66
2023-03-19T05:13:05.261Z,77347.66
2023-03-19T05:15:32.092Z,77347.66
2023-03-19T05:17:58.998Z,77343.59
2023-03-19T05:20:25.633Z,77339.53
2023-03-19T05:22:53.292Z,77349.66
2023-03-19T05:25:19.871Z,77341.56
2023-03-19T05:27:46.646Z,77351.69
2023-03-19T05:30:13.316Z,77341.56
2023-03-19T05:32:40.701Z,77343.59
2023-03-19T05:35:07.838Z,77333.47
2023-03-19T05:37:34.388Z,77343.59
2023-03-19T05:40:00.915Z,77341.56
2023-03-19T05:42:27.417Z,77327.41
2023-03-19T05:44:54.216Z,77317.28
2023-03-19T05:47:21.422Z,77307.16
2023-03-19T05:49:47.987Z,77297.03
2023-03-19T05:52:14.769Z,77297.03
2023-03-19T05:54:41.630Z,77290.94
2023-03-19T05:57:08.481Z,77274.75
2023-03-19T05:59:35.899Z,77260.56
2023-03-19T06:02:02.968Z,77250.44
2023-03-19T06:04:29.450Z,77234.25
2023-03-19T06:06:56.144Z,77218.06
2023-03-19T06:09:22.687Z,77207.94
2023-03-19T06:11:49.208Z,77195.78
2023-03-19T06:14:16.105Z,77193.75
2023-03-19T06:16:42.799Z,77193.75
2023-03-19T06:19:09.471Z,77175.53
2023-03-19T06:21:36.521Z,77165.41
2023-03-19T06:24:04.110Z,77155.28
2023-03-19T06:26:30.687Z,77141.13
2023-03-19T06:28:57.429Z,77153.25
2023-03-19T06:31:24.115Z,77151.25
2023-03-19T06:33:50.912Z,77128.97
2023-03-19T06:36:17.778Z,77122.91
2023-03-19T06:38:44.365Z,77110.75
2023-03-19T06:41:10.987Z,77086.44
2023-03-19T06:43:37.669Z,77080.38
2023-03-19T06:46:05.173Z,77068.22
2023-03-19T06:48:32.130Z,77064.19
2023-03-19T06:50:58.803Z,77039.88
2023-03-19T06:53:25.465Z,77015.59
2023-03-19T06:55:52.083Z,76983.19
2023-03-19T06:58:18.659Z,76958.88
2023-03-19T07:00:45.278Z,76946.75
2023-03-19T07:03:12.278Z,76934.59
2023-03-19T07:05:38.870Z,76902.19
2023-03-19T07:08:11.694Z,76879.94
2023-03-19T07:10:39.383Z,76873.84
2023-03-19T07:13:06.478Z,76865.75
2023-03-19T07:15:33.522Z,76829.31
2023-03-19T07:18:00.312Z,76843.50
2023-03-19T07:20:26.981Z,76863.72
2023-03-19T07:22:54.135Z,76853.63
2023-03-19T07:25:20.878Z,76831.34
2023-03-19T07:27:47.601Z,76805.03
2023-03-19T07:30:14.679Z,76768.56
2023-03-19T07:32:41.323Z,76671.41
2023-03-19T07:35:08.550Z,76533.75
2023-03-19T07:37:35.082Z,76230.09
2023-03-19T07:40:01.759Z,75827.28
2023-03-19T07:42:28.328Z,75424.50
2023-03-19T07:44:54.878Z,75145.22
2023-03-19T07:47:28.842Z,74908.44
2023-03-19T07:49:56.744Z,74750.59
2023-03-19T07:52:24.023Z,74663.59
2023-03-19T07:54:50.851Z,74592.78
2023-03-19T07:57:17.482Z,74661.56
2023-03-19T07:59:43.976Z,74706.09
2023-03-19T08:02:12.229Z,74718.22
2023-03-19T08:04:39.550Z,74906.41
2023-03-19T08:07:06.964Z,74801.19
2023-03-19T08:09:34.193Z,74865.94
2023-03-19T08:12:00.889Z,74768.81
2023-03-19T08:14:27.554Z,74627.16
2023-03-19T08:16:54.186Z,74724.31
2023-03-19T08:19:20.910Z,74863.94
2023-03-19T08:21:47.565Z,74857.84
2023-03-19T08:24:14.363Z,75112.84
2023-03-19T08:26:41.189Z,75120.94
2023-03-19T08:29:09.029Z,75303.06
2023-03-19T08:31:35.681Z,75163.44
2023-03-19T08:34:06.152Z,75371.88
2023-03-19T08:36:32.744Z,75422.47
2023-03-19T08:38:59.520Z,75426.53
2023-03-19T08:41:26.140Z,75549.97
2023-03-19T08:43:52.830Z,75584.38
2023-03-19T08:46:19.604Z,75612.72
2023-03-19T08:48:46.422Z,75790.84
2023-03-19T08:51:13.089Z,75902.16
2023-03-19T08:53:40.152Z,76019.56
2023-03-19T08:56:10.454Z,75964.91
2023-03-19T08:58:37.027Z,75950.75
2023-03-19T09:01:08.840Z,75956.81
2023-03-19T09:03:36.057Z,75954.78
2023-03-19T09:06:04.543Z,75956.81
2023-03-19T10:08:53.603Z,76076.25
2023-03-19T10:11:50.370Z,76066.13
2023-03-19T10:14:38.913Z,76084.34
2023-03-19T10:17:07.362Z,76106.59
2023-03-19T10:19:48.337Z,76155.19
2023-03-19T10:22:37.232Z,76126.84
2023-03-19T10:25:06.451Z,76076.25
2023-03-19T10:27:33.056Z,76078.25
2023-03-19T10:29:59.814Z,76070.16
2023-03-19T10:32:39.716Z,76084.34
2023-03-19T10:35:20.739Z,76064.09
2023-03-19T10:37:49.012Z,76056.00
2023-03-19T10:40:23.586Z,76062.06
2023-03-19T10:43:01.897Z,76066.13
2023-03-19T10:45:39.112Z,76092.44
2023-03-19T10:48:06.269Z,76082.31
2023-03-19T10:50:38.607Z,76092.44
2023-03-19T10:53:29.500Z,76080.28
2023-03-19T10:56:19.453Z,76047.91
2023-03-19T10:58:59.159Z,76007.41
2023-03-19T11:01:39.516Z,75958.84
2023-03-19T11:04:17.684Z,76001.34
2023-03-19T11:06:50.306Z,76003.38
2023-03-19T11:09:24.393Z,76023.63
2023-03-19T11:11:59.565Z,75991.22
2023-03-19T11:14:31.982Z,75950.75
2023-03-19T11:17:20.475Z,75928.47
2023-03-19T11:19:55.018Z,75922.41
2023-03-19T11:22:32.198Z,75920.38
2023-03-19T11:25:23.692Z,75881.91
2023-03-19T11:28:04.627Z,75914.31
2023-03-19T11:30:40.740Z,75938.59
2023-03-19T11:33:33.754Z,75920.38
2023-03-19T11:36:29.137Z,75938.59
2023-03-19T11:39:17.783Z,75890.03
2023-03-19T11:41:53.208Z,75898.13
2023-03-19T11:44:35.038Z,75910.25
2023-03-19T11:47:26.472Z,75892.03
2023-03-19T11:49:59.700Z,75914.31
2023-03-19T11:52:35.462Z,75926.44
2023-03-19T11:55:21.346Z,75914.31
2023-03-19T11:57:57.732Z,75908.25
2023-03-19T12:00:50.864Z,75843.47
2023-03-19T12:03:28.968Z,75809.06
2023-03-19T12:06:16.571Z,75811.06
2023-03-19T12:08:47.716Z,75800.97
2023-03-19T12:11:32.515Z,75790.84
2023-03-19T12:14:04.415Z,75831.31
2023-03-19T12:16:55.887Z,75839.41
2023-03-19T12:19:41.485Z,75877.88
2023-03-19T12:22:31.507Z,75861.69
2023-03-19T12:25:17.148Z,75906.22
2023-03-19T12:27:55.508Z,75894.06
2023-03-19T12:30:22.100Z,75881.91
2023-03-19T12:33:19.726Z,75845.50
2023-03-19T12:35:50.005Z,75847.50
2023-03-19T12:38:19.564Z,75815.13
2023-03-19T12:40:52.666Z,75809.06
2023-03-19T12:43:44.084Z,75800.97
2023-03-19T12:46:16.595Z,75857.63
2023-03-19T12:48:55.793Z,75888.00
2023-03-19T12:51:26.590Z,75871.81
2023-03-19T12:54:04.585Z,75829.28
2023-03-19T12:56:40.290Z,75849.53
2023-03-19T12:59:31.908Z,75841.44
2023-03-19T13:02:23.767Z,75833.34
2023-03-19T13:04:57.396Z,75782.75
2023-03-19T13:07:32.215Z,75780.72
2023-03-19T13:10:04.625Z,75788.81
2023-03-19T13:12:33.954Z,75819.19
2023-03-19T13:15:10.113Z,75780.72
2023-03-19T13:17:42.680Z,75746.31
2023-03-19T13:20:27.210Z,75726.06
2023-03-19T13:22:57.530Z,75800.97
2023-03-19T13:25:29.215Z,75770.59
2023-03-19T13:27:56.002Z,75788.81
2023-03-19T13:30:23.876Z,75784.75
2023-03-19T13:32:54.285Z,75750.34
2023-03-19T13:35:28.585Z,75734.16
2023-03-19T13:38:00.232Z,75825.25
2023-03-19T13:40:39.107Z,75813.09
2023-03-19T13:43:28.065Z,75825.25
2023-03-19T13:46:04.255Z,75831.31
2023-03-19T13:48:37.577Z,75809.06
2023-03-19T13:51:12.796Z,75825.25
2023-03-19T13:54:04.268Z,75863.72
2023-03-19T13:56:33.173Z,75825.25
2023-03-19T13:59:15.061Z,75811.06
2023-03-19T14:01:44.941Z,75809.06
2023-03-19T14:04:20.602Z,75798.94
2023-03-19T14:06:53.658Z,75807.03
2023-03-19T14:09:38.205Z,75813.09
2023-03-19T14:12:20.443Z,75807.03
2023-03-19T14:14:50.415Z,75788.81
2023-03-19T14:17:20.556Z,75792.88
2023-03-19T14:19:47.164Z,75772.63
2023-03-19T14:22:16.378Z,75764.53
2023-03-19T14:24:57.094Z,75766.56
2023-03-19T14:27:30.484Z,75772.63
2023-03-19T14:30:00.810Z,75786.78
2023-03-19T14:32:33.393Z,75768.56
2023-03-19T14:35:00.977Z,75758.44
2023-03-19T14:37:34.621Z,75796.91
2023-03-19T14:40:16.870Z,75829.28
2023-03-19T14:43:21.912Z,75843.47
2023-03-19T14:45:55.575Z,75865.72
2023-03-19T14:48:59.491Z,75865.72
2023-03-19T14:51:53.599Z,75890.03
2023-03-19T14:54:30.324Z,75932.53
2023-03-19T14:56:57.744Z,75922.41
2023-03-19T14:59:24.452Z,75914.31
2023-03-19T15:01:53.031Z,75881.91
2023-03-19T15:04:22.620Z,75883.94
2023-03-19T15:06:55.230Z,75885.97
2023-03-19T15:09:29.878Z,75902.16
2023-03-19T15:12:20.637Z,75898.13
2023-03-19T15:15:10.093Z,75920.38
2023-03-19T15:17:39.632Z,75924.44
2023-03-19T15:20:24.173Z,75934.56
2023-03-19T15:22:54.702Z,75934.56
2023-03-19T15:25:21.642Z,75952.75
2023-03-19T15:28:05.748Z,75948.72
2023-03-19T15:30:32.916Z,75950.75
2023-03-19T15:33:13.927Z,75977.06
2023-03-19T15:35:44.178Z,75975.03
2023-03-19T15:38:13.536Z,75977.06
2023-03-19T15:40:41.496Z,75983.13
2023-03-19T15:43:11.489Z,75995.28
2023-03-19T15:45:38.527Z,76003.38
2023-03-19T15:48:32.871Z,76001.34
2023-03-19T15:51:02.775Z,76003.38
2023-03-19T15:53:31.770Z,76015.50
2023-03-19T15:56:01.211Z,76031.72
2023-03-19T15:58:30.822Z,76039.81
2023-03-19T16:00:59.480Z,76047.91
2023-03-19T16:03:33.041Z,76062.06
2023-03-19T16:06:27.052Z,76072.19
2023-03-19T16:08:55.457Z,76072.19
2023-03-19T16:11:34.294Z,76092.44
2023-03-19T16:14:21.418Z,76102.56
2023-03-19T16:16:48.852Z,76116.72
2023-03-19T16:19:39.294Z,76120.78
2023-03-19T16:22:17.386Z,76126.84
2023-03-19T16:24:46.414Z,76134.94
2023-03-19T16:27:18.285Z,76139.00
2023-03-19T16:29:46.949Z,76147.09
2023-03-19T16:32:23.603Z,76147.09
2023-03-19T16:35:15.885Z,76157.22
2023-03-19T16:37:47.771Z,76169.34
2023-03-19T16:40:15.521Z,76183.53
2023-03-19T16:42:45.755Z,76189.59
2023-03-19T16:45:15.334Z,76207.81
2023-03-19T16:47:49.922Z,76217.94
2023-03-19T16:50:18.082Z,76226.03
2023-03-19T16:52:45.746Z,76236.16
2023-03-19T16:55:28.306Z,76240.22
2023-03-19T16:58:20.275Z,76246.28
2023-03-19T17:00:47.399Z,76250.31
2023-03-19T17:03:16.283Z,76262.47
2023-03-19T17:05:44.085Z,76270.56
2023-03-19T17:08:11.654Z,76284.75
2023-03-19T17:10:42.190Z,76276.63
2023-03-19T17:13:23.444Z,76282.72
2023-03-19T17:15:50.808Z,76286.75
2023-03-19T17:18:21.191Z,76294.84
2023-03-19T17:20:52.850Z,76311.06
2023-03-19T17:23:19.712Z,76321.19
2023-03-19T17:25:46.398Z,76327.25
2023-03-19T17:28:12.859Z,76343.44
2023-03-19T17:30:39.575Z,76355.59
2023-03-19T17:33:06.203Z,76347.50
2023-03-19T17:35:34.221Z,76359.63
2023-03-19T17:38:01.206Z,76361.66
2023-03-19T17:40:28.010Z,76359.63
2023-03-19T17:42:55.752Z,76359.63
2023-03-19T17:45:27.770Z,76361.66
2023-03-19T17:47:56.568Z,76359.63
2023-03-19T17:50:28.322Z,76379.88
2023-03-19T17:52:55.086Z,76371.78
2023-03-19T17:55:24.637Z,76379.88
2023-03-19T17:57:51.603Z,76377.84
2023-03-19T18:00:20.333Z,76375.84
2023-03-19T18:02:48.206Z,76367.75
2023-03-19T18:05:16.660Z,76375.84
2023-03-19T18:07:44.943Z,76355.59
2023-03-19T18:10:26.717Z,76371.78
2023-03-19T18:12:54.595Z,76367.75
2023-03-19T18:15:21.828Z,76365.72
2023-03-19T18:17:54.489Z,76373.81
2023-03-19T18:20:23.117Z,76369.75
2023-03-19T18:22:50.067Z,76363.69
2023-03-19T18:25:20.225Z,76369.75
2023-03-19T18:27:51.457Z,76377.84
2023-03-19T18:30:20.646Z,76385.97
2023-03-19T18:32:54.287Z,76400.13
2023-03-19T18:35:23.240Z,76414.28
2023-03-19T18:37:51.203Z,76414.28
2023-03-19T18:40:25.672Z,76412.28
2023-03-19T18:42:52.708Z,76412.28
2023-03-19T18:45:19.751Z,76424.41
2023-03-19T18:47:48.192Z,76428.47
2023-03-19T18:50:26.288Z,76430.50
2023-03-19T18:52:53.706Z,76444.66
2023-03-19T18:55:20.980Z,76456.81
2023-03-19T18:57:59.618Z,76450.75
2023-03-19T19:00:37.730Z,76456.81
2023-03-19T19:03:05.427Z,76460.84
2023-03-19T19:05:32.948Z,76462.88
2023-03-19T19:08:04.449Z,76462.88
2023-03-19T19:10:42.368Z,76470.97
2023-03-19T19:13:15.993Z,76468.97
2023-03-19T19:15:42.499Z,76477.06
2023-03-19T19:18:20.650Z,76485.16
2023-03-19T19:20:49.337Z,76485.16
2023-03-19T19:23:16.361Z,76466.94
2023-03-19T19:25:45.433Z,76458.84
2023-03-19T19:28:19.248Z,76460.84
2023-03-19T19:30:46.241Z,76456.81
2023-03-19T19:33:17.851Z,76456.81
2023-03-19T19:35:44.964Z,76448.72
2023-03-19T19:38:12.964Z,76456.81
2023-03-19T19:40:43.615Z,76456.81
2023-03-19T19:43:19.479Z,76475.03
2023-03-19T19:45:48.058Z,76503.38
2023-03-19T19:48:17.444Z,76501.34
2023-03-19T19:50:45.132Z,76503.38
2023-03-19T19:53:12.341Z,76513.50
2023-03-19T19:55:39.172Z,76527.66
2023-03-19T19:58:08.528Z,76527.66
2023-03-19T20:00:35.252Z,76523.63
2023-03-19T20:03:01.815Z,76523.63
2023-03-19T20:05:31.303Z,76515.53
2023-03-19T20:08:00.686Z,76531.72
2023-03-19T20:10:29.658Z,76531.72
2023-03-19T20:12:58.857Z,76533.75
2023-03-19T20:15:36.833Z,76539.81
2023-03-19T20:18:05.283Z,76529.69
2023-03-19T20:20:33.076Z,76539.81
2023-03-19T20:23:02.315Z,76521.59
2023-03-19T20:25:32.464Z,76529.69
2023-03-19T20:28:00.585Z,76531.72
2023-03-19T20:30:28.943Z,76529.69
2023-03-19T20:32:56.573Z,76531.72
2023-03-19T20:35:28.501Z,76541.84
2023-03-19T20:37:56.602Z,76553.97
2023-03-19T20:40:26.398Z,76558.03
2023-03-19T20:42:52.948Z,76558.03
2023-03-19T20:45:21.912Z,76547.91
2023-03-19T20:47:49.150Z,76556.00
2023-03-19T20:50:26.371Z,76566.13
2023-03-19T20:52:52.991Z,76558.03
2023-03-19T20:55:21.832Z,76574.22
2023-03-19T20:57:50.051Z,76566.13
2023-03-19T21:00:28.326Z,76553.97
2023-03-19T21:02:58.532Z,76560.06
2023-03-19T21:05:30.483Z,76570.19
2023-03-19T21:07:57.051Z,76562.09
2023-03-19T21:10:39.485Z,76549.94
2023-03-19T21:13:06.951Z,76564.09
2023-03-19T21:15:33.959Z,76551.97
2023-03-19T21:18:00.820Z,76545.88
2023-03-19T21:20:28.971Z,76545.88
2023-03-19T21:23:19.446Z,76558.03
2023-03-19T21:25:46.435Z,76566.13
2023-03-19T21:28:33.471Z,76566.13
2023-03-19T21:31:00.532Z,76551.97
2023-03-19T21:33:29.832Z,76574.22
2023-03-19T21:35:57.442Z,76592.44
2023-03-19T21:38:24.473Z,76604.59
2023-03-19T21:40:52.819Z,76594.47
2023-03-19T21:43:22.669Z,76606.63
2023-03-19T21:45:52.576Z,76618.75
2023-03-19T21:48:25.239Z,76626.88
2023-03-19T21:50:52.142Z,76628.88
2023-03-19T21:53:19.531Z,76626.88
2023-03-19T21:55:46.296Z,76630.91
2023-03-19T21:58:14.419Z,76632.94
2023-03-19T22:00:41.654Z,76630.91
2023-03-19T22:03:15.024Z,76639.00
2023-03-19T22:05:41.755Z,76655.22
2023-03-19T22:08:08.755Z,76655.22
2023-03-19T22:10:35.531Z,76657.22
2023-03-19T22:13:02.888Z,76665.31
2023-03-19T22:15:37.670Z,76675.44
2023-03-19T22:18:06.962Z,76657.22
2023-03-19T22:20:33.680Z,76667.34
2023-03-19T22:23:00.558Z,76655.22
2023-03-19T22:25:31.732Z,76641.03
2023-03-19T22:27:58.381Z,76647.09
2023-03-19T22:30:36.285Z,76659.25
2023-03-19T22:33:14.475Z,76626.88
2023-03-19T22:35:41.657Z,76643.06
2023-03-19T22:38:08.195Z,76639.00
2023-03-19T22:40:34.972Z,76639.00
2023-03-19T22:43:01.632Z,76641.03
2023-03-19T22:45:31.136Z,76639.00
2023-03-19T22:47:58.292Z,76649.13
2023-03-19T22:50:27.781Z,76649.13
2023-03-19T22:52:54.882Z,76657.22
2023-03-19T22:55:21.570Z,76651.16
2023-03-19T22:57:48.576Z,76651.16
2023-03-19T23:00:21.092Z,76655.22
2023-03-19T23:02:54.709Z,76651.16
2023-03-19T23:05:25.896Z,76653.19
2023-03-19T23:07:53.443Z,76667.34
2023-03-19T23:10:21.395Z,76667.34
2023-03-19T23:12:48.159Z,76663.31
2023-03-19T23:15:14.820Z,76671.41
2023-03-19T23:17:42.178Z,76685.56
2023-03-19T23:20:17.814Z,76679.50
2023-03-19T23:22:45.714Z,76671.41
2023-03-19T23:25:18.127Z,76691.66
2023-03-19T23:27:45.631Z,76703.78
2023-03-19T23:30:32.070Z,76695.69
2023-03-19T23:33:01.590Z,76695.69
2023-03-19T23:35:30.507Z,76695.69
2023-03-19T23:37:57.496Z,76699.75
2023-03-19T23:40:31.280Z,76699.75
2023-03-19T23:42:58.663Z,76695.69
2023-03-19T23:45:25.024Z,76703.78
2023-03-19T23:47:51.566Z,76709.88
2023-03-19T23:50:18.323Z,76711.91
2023-03-19T23:52:44.911Z,76707.84
2023-03-19T23:55:11.643Z,76707.84
2023-03-19T23:57:38.791Z,76705.81
